createdAt,value
2022-09-25T00:01:19.920Z,17.52
2022-09-25T00:03:49.460Z,17.48
2022-09-25T00:06:20.766Z,17.44
2022-09-25T00:08:49.442Z,17.41
2022-09-25T00:11:19.895Z,17.36
2022-09-25T00:13:48.637Z,17.35
2022-09-25T00:16:21.518Z,17.35
2022-09-25T00:19:08.672Z,17.35
2022-09-25T00:21:38.120Z,17.33
2022-09-25T00:24:09.668Z,17.31
2022-09-25T00:26:41.765Z,17.28
2022-09-25T00:29:16.424Z,17.27
2022-09-25T00:31:44.358Z,17.26
2022-09-25T00:34:12.415Z,17.27
2022-09-25T00:36:40.125Z,17.27
2022-09-25T00:39:07.711Z,17.29
2022-09-25T00:41:35.603Z,17.29
2022-09-25T00:44:42.132Z,17.24
2022-09-25T00:47:13.592Z,17.18
2022-09-25T00:49:41.769Z,17.15
2022-09-25T00:52:15.779Z,17.06
2022-09-25T00:54:55.853Z,16.88
2022-09-25T00:57:27.738Z,16.72
2022-09-25T01:00:11.590Z,16.56
2022-09-25T01:02:53.447Z,16.42
2022-09-25T01:05:30.980Z,16.35
2022-09-25T01:08:02.045Z,16.26
2022-09-25T01:10:30.766Z,16.19
2022-09-25T01:13:00.223Z,16.12
2022-09-25T01:15:52.148Z,16.02
2022-09-25T01:18:48.473Z,15.93
2022-09-25T01:21:18.728Z,15.90
2022-09-25T01:23:49.239Z,15.89
2022-09-25T01:26:22.499Z,15.83
2022-09-25T01:28:59.642Z,15.83
2022-09-25T01:31:42.415Z,15.89
2022-09-25T01:34:21.368Z,15.95
2022-09-25T01:37:30.055Z,16.00
2022-09-25T01:40:38.942Z,16.03
2022-09-25T01:43:21.490Z,16.05
2022-09-25T01:45:54.195Z,16.12
2022-09-25T01:48:27.686Z,16.14
2022-09-25T01:51:03.881Z,16.20
2022-09-25T01:53:47.067Z,16.28
2022-09-25T01:57:06.494Z,16.38
2022-09-25T01:59:47.293Z,16.39
2022-09-25T02:02:21.347Z,16.32
2022-09-25T02:05:07.884Z,16.20
2022-09-25T02:07:42.237Z,16.05
2022-09-25T02:10:27.713Z,16.00
2022-09-25T02:13:10.965Z,15.96
2022-09-25T02:15:52.245Z,15.92
2022-09-25T02:18:40.327Z,15.95
2022-09-25T02:21:25.496Z,16.00
2022-09-25T02:24:06.544Z,16.07
2022-09-25T02:26:35.693Z,16.14
2022-09-25T02:29:03.833Z,16.21
2022-09-25T02:31:43.450Z,16.25
2022-09-25T02:34:14.978Z,16.32
2022-09-25T02:36:44.855Z,16.35
2022-09-25T02:39:18.813Z,16.38
2022-09-25T02:42:07.922Z,16.42
2022-09-25T02:45:35.953Z,16.47
2022-09-25T02:48:23.069Z,16.47
2022-09-25T02:51:11.413Z,16.45
2022-09-25T02:54:08.649Z,16.39
2022-09-25T02:57:06.429Z,16.35
2022-09-25T02:59:43.741Z,16.29
2022-09-25T03:02:13.561Z,16.22
2022-09-25T03:04:42.413Z,16.15
2022-09-25T03:07:10.225Z,16.14
2022-09-25T03:09:42.282Z,16.11
2022-09-25T03:12:10.067Z,16.08
2022-09-25T03:14:37.527Z,16.06
2022-09-25T03:17:07.779Z,16.04
2022-09-25T03:19:35.442Z,16.01
2022-09-25T03:22:03.832Z,15.93
2022-09-25T03:24:32.114Z,15.86
2022-09-25T03:26:59.571Z,15.74
2022-09-25T03:29:27.368Z,15.65
2022-09-25T03:31:55.522Z,15.63
2022-09-25T03:34:23.115Z,15.53
2022-09-25T03:36:50.545Z,15.49
2022-09-25T03:39:18.281Z,15.39
2022-09-25T03:41:46.439Z,15.30
2022-09-25T03:44:14.043Z,15.22
2022-09-25T03:46:41.780Z,15.12
2022-09-25T03:49:10.844Z,15.04
2022-09-25T03:51:39.037Z,14.94
2022-09-25T03:54:06.952Z,14.85
2022-09-25T03:56:34.611Z,14.78
2022-09-25T03:59:02.122Z,14.73
2022-09-25T04:01:30.180Z,14.70
2022-09-25T04:03:58.164Z,14.70
2022-09-25T04:06:27.139Z,14.72
2022-09-25T04:08:55.340Z,14.72
2022-09-25T04:11:24.579Z,14.68
2022-09-25T04:13:52.836Z,14.67
2022-09-25T04:16:21.414Z,14.73
2022-09-25T04:18:50.701Z,14.83
2022-09-25T04:21:18.221Z,14.95
2022-09-25T04:24:06.006Z,15.06
2022-09-25T04:26:34.633Z,15.13
2022-09-25T04:29:03.698Z,15.22
2022-09-25T04:31:32.661Z,15.32
2022-09-25T04:34:02.215Z,15.41
2022-09-25T04:36:29.935Z,15.51
2022-09-25T04:38:57.727Z,15.59
2022-09-25T04:41:25.253Z,15.66
2022-09-25T04:43:52.982Z,15.73
2022-09-25T04:46:22.654Z,15.78
2022-09-25T04:48:50.761Z,15.84
2022-09-25T04:51:18.667Z,15.88
2022-09-25T04:53:46.829Z,15.89
2022-09-25T04:56:16.281Z,15.92
2022-09-25T04:58:50.251Z,15.96
2022-09-25T05:01:20.540Z,16.00
2022-09-25T05:03:53.724Z,16.04
2022-09-25T05:06:23.316Z,16.10
2022-09-25T05:08:51.147Z,16.15
2022-09-25T05:11:19.081Z,16.20
2022-09-25T05:13:51.796Z,16.24
2022-09-25T05:16:20.475Z,16.31
2022-09-25T05:18:48.154Z,16.32
2022-09-25T05:21:15.633Z,16.29
2022-09-25T05:23:43.843Z,16.26
2022-09-25T05:26:11.539Z,16.27
2022-09-25T05:28:39.579Z,16.28
2022-09-25T05:31:08.280Z,16.30
2022-09-25T05:33:36.025Z,16.34
2022-09-25T05:36:08.046Z,16.36
2022-09-25T05:38:39.101Z,16.39
2022-09-25T05:41:11.064Z,16.43
2022-09-25T05:43:42.997Z,16.45
2022-09-25T05:46:11.776Z,16.47
2022-09-25T05:48:40.029Z,16.49
2022-09-25T05:51:07.938Z,16.57
2022-09-25T05:53:35.435Z,16.70
2022-09-25T05:56:05.540Z,16.82
2022-09-25T05:58:34.946Z,16.89
2022-09-25T06:01:04.831Z,16.87
2022-09-25T06:03:32.848Z,16.82
2022-09-25T06:06:01.474Z,16.80
2022-09-25T06:08:33.021Z,16.78
2022-09-25T06:11:02.474Z,16.75
2022-09-25T06:13:33.134Z,16.72
2022-09-25T06:16:02.317Z,16.63
2022-09-25T06:18:30.271Z,16.62
2022-09-25T06:21:05.095Z,16.62
2022-09-25T06:23:33.309Z,16.61
2022-09-25T06:26:03.812Z,16.60
2022-09-25T06:28:32.179Z,16.58
2022-09-25T06:31:06.006Z,16.57
2022-09-25T06:33:33.668Z,16.57
2022-09-25T06:36:02.265Z,16.55
2022-09-25T06:38:29.903Z,16.53
2022-09-25T06:41:00.617Z,16.47
2022-09-25T06:43:29.324Z,16.45
2022-09-25T06:46:02.574Z,16.45
2022-09-25T06:48:31.012Z,16.44
2022-09-25T06:51:00.764Z,16.42
2022-09-25T06:53:28.367Z,16.42
2022-09-25T06:56:02.858Z,16.42
2022-09-25T06:58:30.858Z,16.44
2022-09-25T07:00:59.238Z,16.46
2022-09-25T07:03:45.186Z,16.51
2022-09-25T07:06:15.318Z,16.56
2022-09-25T07:08:48.137Z,16.63
2022-09-25T07:11:22.509Z,16.69
2022-09-25T07:13:57.313Z,16.76
2022-09-25T07:16:30.066Z,16.81
2022-09-25T07:19:00.770Z,16.90
2022-09-25T07:21:30.791Z,16.95
2022-09-25T07:23:59.019Z,17.01
2022-09-25T07:26:33.933Z,17.07
2022-09-25T07:29:06.562Z,17.13
2022-09-25T07:31:37.936Z,17.19
2022-09-25T07:34:09.629Z,17.26
2022-09-25T07:36:38.800Z,17.34
2022-09-25T07:39:07.542Z,17.40
2022-09-25T07:41:37.155Z,17.45
2022-09-25T07:44:27.915Z,17.34
2022-09-25T07:46:55.165Z,17.11
2022-09-25T07:49:22.708Z,16.95
2022-09-25T07:51:50.202Z,16.79
2022-09-25T07:54:18.090Z,16.70
2022-09-25T07:56:45.568Z,16.67
2022-09-25T07:59:13.274Z,16.78
2022-09-25T08:01:44.699Z,16.92
2022-09-25T08:04:14.018Z,17.03
2022-09-25T08:06:41.816Z,17.12
2022-09-25T08:09:12.179Z,17.18
2022-09-25T08:11:39.921Z,17.30
2022-09-25T08:14:07.849Z,17.46
2022-09-25T08:16:35.532Z,17.62
2022-09-25T08:19:03.874Z,17.80
2022-09-25T08:21:31.671Z,17.97
2022-09-25T08:23:59.165Z,18.08
2022-09-25T08:26:28.145Z,18.24
2022-09-25T08:28:56.922Z,18.35
2022-09-25T08:31:24.530Z,18.45
2022-09-25T08:33:52.151Z,18.53
2022-09-25T08:36:21.309Z,18.59
2022-09-25T08:38:48.879Z,18.63
2022-09-25T08:41:51.056Z,18.65
2022-09-25T08:44:36.807Z,18.78
2022-09-25T08:47:37.606Z,18.81
2022-09-25T08:50:09.229Z,18.87
2022-09-25T08:52:41.239Z,18.96
2022-09-25T08:56:01.683Z,19.00
2022-09-25T08:58:34.006Z,19.03
2022-09-25T09:01:06.653Z,19.06
2022-09-25T09:04:05.599Z,19.12
2022-09-25T09:06:37.339Z,19.30
2022-09-25T09:09:29.906Z,19.51
2022-09-25T09:12:25.747Z,19.62
2022-09-25T09:15:06.857Z,19.69
2022-09-25T09:17:42.535Z,19.72
2022-09-25T09:20:30.013Z,19.78
2022-09-25T09:22:58.927Z,19.75
2022-09-25T09:25:40.572Z,19.83
2022-09-25T09:28:54.516Z,19.93
2022-09-25T09:31:46.910Z,19.99
2022-09-25T09:35:04.875Z,19.87
2022-09-25T09:37:50.643Z,19.94
2022-09-25T09:40:43.947Z,20.02
2022-09-25T09:43:43.179Z,20.07
2022-09-25T09:46:41.973Z,20.17
2022-09-25T09:49:51.140Z,20.30
2022-09-25T09:52:34.305Z,20.41
2022-09-25T09:55:23.119Z,20.47
2022-09-25T09:57:55.159Z,20.53
2022-09-25T10:00:24.440Z,20.60
2022-09-25T10:03:17.318Z,20.76
2022-09-25T10:05:57.101Z,20.71
2022-09-25T10:08:25.418Z,20.69
2022-09-25T10:10:55.029Z,20.71
2022-09-25T10:13:38.283Z,20.78
2022-09-25T10:16:11.460Z,20.86
2022-09-25T10:18:48.453Z,20.96
2022-09-25T10:21:25.498Z,20.96
2022-09-25T10:23:56.113Z,21.03
2022-09-25T10:26:38.977Z,21.06
2022-09-25T10:29:23.079Z,21.04
2022-09-25T10:32:00.341Z,21.10
2022-09-25T10:34:29.741Z,21.15
2022-09-25T10:36:58.305Z,21.15
2022-09-25T10:39:49.170Z,21.19
2022-09-25T10:42:41.569Z,21.22
2022-09-25T10:45:36.065Z,21.22
2022-09-25T10:48:56.324Z,21.21
2022-09-25T10:51:25.369Z,21.13
2022-09-25T10:54:13.944Z,21.13
2022-09-25T10:56:42.465Z,21.07
2022-09-25T10:59:19.758Z,21.22
2022-09-25T11:01:51.736Z,21.48
2022-09-25T11:04:32.069Z,21.74
2022-09-25T11:07:07.903Z,21.91
2022-09-25T11:09:43.775Z,21.98
2022-09-25T11:12:38.740Z,22.09
2022-09-25T11:15:17.499Z,22.15
2022-09-25T11:17:46.958Z,22.22
2022-09-25T11:20:27.847Z,22.26
2022-09-25T11:23:29.341Z,22.29
2022-09-25T11:26:14.236Z,22.32
2022-09-25T11:29:01.770Z,22.35
2022-09-25T11:31:42.777Z,22.28
2022-09-25T11:34:58.307Z,22.25
2022-09-25T11:37:58.514Z,22.26
2022-09-25T11:41:16.070Z,22.27
2022-09-25T11:44:13.011Z,22.29
2022-09-25T11:46:54.261Z,22.30
2022-09-25T11:49:28.590Z,22.32
2022-09-25T11:52:42.732Z,22.35
2022-09-25T11:55:52.397Z,22.33
2022-09-25T11:58:33.542Z,22.33
2022-09-25T12:01:25.931Z,22.30
2022-09-25T12:04:17.757Z,22.26
2022-09-25T12:07:15.838Z,22.22
2022-09-25T12:10:27.235Z,22.20
2022-09-25T12:13:04.347Z,22.15
2022-09-25T12:16:14.457Z,22.13
2022-09-25T12:19:10.810Z,22.10
2022-09-25T12:22:11.497Z,22.03
2022-09-25T12:24:44.601Z,21.97
2022-09-25T12:27:33.072Z,21.93
2022-09-25T12:30:21.353Z,21.88
2022-09-25T12:33:04.336Z,21.82
2022-09-25T12:35:58.102Z,21.81
2022-09-25T12:38:48.516Z,21.77
2022-09-25T12:41:53.156Z,21.73
2022-09-25T12:44:38.145Z,21.67
2022-09-25T12:47:33.222Z,21.63
2022-09-25T12:50:29.599Z,21.59
2022-09-25T12:53:17.101Z,21.58
2022-09-25T12:55:53.137Z,21.56
2022-09-25T12:58:57.548Z,21.58
2022-09-25T13:01:32.311Z,21.59
2022-09-25T13:04:37.840Z,21.62
2022-09-25T13:07:33.581Z,21.62
2022-09-25T13:10:13.615Z,21.63
2022-09-25T13:12:41.380Z,21.65
2022-09-25T13:15:23.275Z,21.67
2022-09-25T13:17:51.125Z,21.66
2022-09-25T13:20:31.344Z,21.66
2022-09-25T13:23:37.192Z,21.63
2022-09-25T13:26:18.497Z,21.57
2022-09-25T13:29:28.096Z,21.57
2022-09-25T13:32:23.296Z,21.52
2022-09-25T13:35:03.442Z,21.48
2022-09-25T13:37:38.044Z,21.46
2022-09-25T13:40:46.192Z,21.42
2022-09-25T13:43:30.524Z,21.35
2022-09-25T13:46:25.039Z,21.30
2022-09-25T13:48:55.481Z,21.27
2022-09-25T13:51:22.984Z,21.24
2022-09-25T13:56:55.066Z,21.15
2022-09-25T13:59:37.037Z,21.13
2022-09-25T14:02:37.183Z,21.09
2022-09-25T14:05:05.927Z,21.05
2022-09-25T14:07:34.983Z,21.00
2022-09-25T14:10:03.294Z,20.98
2022-09-25T14:12:42.971Z,20.95
2022-09-25T14:15:22.682Z,20.90
2022-09-25T14:17:54.679Z,20.85
2022-09-25T14:20:38.540Z,20.82
2022-09-25T14:23:27.285Z,20.79
2022-09-25T14:26:08.766Z,20.77
2022-09-25T14:28:45.852Z,20.75
2022-09-25T14:31:34.938Z,20.73
2022-09-25T14:34:39.589Z,20.73
2022-09-25T14:38:12.496Z,20.68
2022-09-25T14:41:05.027Z,20.64
2022-09-25T14:43:41.834Z,20.61
2022-09-25T14:46:18.789Z,20.60
2022-09-25T14:49:08.125Z,20.60
2022-09-25T14:51:41.633Z,20.56
2022-09-25T14:54:17.308Z,20.55
2022-09-25T14:56:50.353Z,20.53
2022-09-25T14:59:37.721Z,20.51
2022-09-25T15:02:12.067Z,20.48
2022-09-25T15:04:39.877Z,20.45
2022-09-25T15:07:23.242Z,20.45
2022-09-25T15:09:55.561Z,20.44
2022-09-25T15:12:31.468Z,20.43
2022-09-25T15:15:13.437Z,20.46
2022-09-25T15:17:54.743Z,20.45
2022-09-25T15:20:26.763Z,20.44
2022-09-25T15:23:16.242Z,20.42
2022-09-25T15:25:55.211Z,20.40
2022-09-25T15:28:26.295Z,20.38
2022-09-25T15:31:06.715Z,20.35
2022-09-25T15:33:37.796Z,20.31
2022-09-25T15:36:23.096Z,20.29
2022-09-25T15:39:02.426Z,20.24
2022-09-25T15:41:30.374Z,20.21
2022-09-25T15:44:18.391Z,20.18
2022-09-25T15:46:59.076Z,20.13
2022-09-25T15:49:55.953Z,20.09
2022-09-25T15:52:32.519Z,20.04
2022-09-25T15:55:22.517Z,20.02
2022-09-25T15:57:53.286Z,20.00
2022-09-25T16:00:44.763Z,19.97
2022-09-25T16:03:42.893Z,19.94
2022-09-25T16:06:17.484Z,19.91
2022-09-25T16:08:45.692Z,19.87
2022-09-25T16:11:23.636Z,19.87
2022-09-25T16:14:12.379Z,19.84
2022-09-25T16:16:49.431Z,19.80
2022-09-25T16:19:27.075Z,19.78
2022-09-25T16:21:55.309Z,19.77
2022-09-25T16:24:31.567Z,19.75
2022-09-25T16:27:02.849Z,19.75
2022-09-25T16:29:39.206Z,19.72
2022-09-25T16:32:21.058Z,19.70
2022-09-25T16:35:01.232Z,19.69
2022-09-25T16:37:35.687Z,19.67
2022-09-25T16:40:38.780Z,19.65
2022-09-25T16:43:25.942Z,19.64
2022-09-25T16:46:03.098Z,19.66
2022-09-25T16:48:39.488Z,19.51
2022-09-25T16:51:32.332Z,19.17
2022-09-25T16:54:00.571Z,18.95
2022-09-25T16:56:31.620Z,18.81
2022-09-25T16:58:59.843Z,18.75
2022-09-25T17:01:28.803Z,18.87
2022-09-25T17:04:00.018Z,18.87
2022-09-25T17:06:30.649Z,18.92
2022-09-25T17:08:59.970Z,19.02
2022-09-25T17:11:27.656Z,19.15
2022-09-25T17:13:56.129Z,19.35
2022-09-25T17:16:23.972Z,19.52
2022-09-25T17:18:51.608Z,19.65
2022-09-25T17:21:20.173Z,19.68
2022-09-25T17:23:47.979Z,19.65
2022-09-25T17:26:21.190Z,19.77
2022-09-25T17:28:52.123Z,19.83
2022-09-25T17:31:22.221Z,19.85
2022-09-25T17:33:50.599Z,19.95
2022-09-25T17:36:18.363Z,20.01
2022-09-25T17:38:46.026Z,20.08
2022-09-25T17:41:35.213Z,20.01
2022-09-25T17:44:04.311Z,19.94
2022-09-25T17:46:36.172Z,19.86
2022-09-25T17:49:04.524Z,19.79
2022-09-25T17:51:32.297Z,19.72
2022-09-25T17:54:02.721Z,19.64
2022-09-25T17:56:30.269Z,19.67
2022-09-25T17:58:58.181Z,19.67
2022-09-25T18:01:38.378Z,19.65
2022-09-25T18:04:25.303Z,19.62
2022-09-25T18:06:53.578Z,19.60
2022-09-25T18:09:21.438Z,19.65
2022-09-25T18:11:48.985Z,19.81
2022-09-25T18:14:17.391Z,19.97
2022-09-25T18:16:45.409Z,20.15
2022-09-25T18:19:37.727Z,20.34
2022-09-25T18:22:18.910Z,20.47
2022-09-25T18:24:57.397Z,20.53
2022-09-25T18:27:32.821Z,20.49
2022-09-25T18:30:00.685Z,20.45
2022-09-25T18:32:29.365Z,20.49
2022-09-25T18:34:57.184Z,20.54
2022-09-25T18:37:24.817Z,20.60
2022-09-25T18:39:52.790Z,20.65
2022-09-25T18:42:20.454Z,20.64
2022-09-25T18:44:48.771Z,20.64
2022-09-25T18:47:16.751Z,20.64
2022-09-25T18:49:44.381Z,20.64
2022-09-25T18:52:11.998Z,20.63
2022-09-25T18:54:42.241Z,20.63
2022-09-25T18:57:12.077Z,20.61
2022-09-25T18:59:40.962Z,20.61
2022-09-25T19:02:21.490Z,20.61
2022-09-25T19:04:51.194Z,20.61
2022-09-25T19:07:19.764Z,20.58
2022-09-25T19:09:47.328Z,20.57
2022-09-25T19:12:17.106Z,20.55
2022-09-25T19:14:46.074Z,20.51
2022-09-25T19:17:18.339Z,20.47
2022-09-25T19:19:46.034Z,20.40
2022-09-25T19:22:19.805Z,20.01
2022-09-25T19:24:48.818Z,19.57
2022-09-25T19:27:18.662Z,19.25
2022-09-25T19:29:46.990Z,19.12
2022-09-25T19:32:17.440Z,19.05
2022-09-25T19:34:45.631Z,19.04
2022-09-25T19:37:15.306Z,19.04
2022-09-25T19:40:04.773Z,18.95
2022-09-25T19:42:33.836Z,18.96
2022-09-25T19:45:01.878Z,18.98
2022-09-25T19:47:29.625Z,18.98
2022-09-25T19:49:57.541Z,18.91
2022-09-25T19:52:25.417Z,18.92
2022-09-25T19:54:52.913Z,18.94
2022-09-25T19:57:20.501Z,18.90
2022-09-25T19:59:49.335Z,18.95
2022-09-25T20:02:17.127Z,19.04
2022-09-25T20:04:45.052Z,19.03
2022-09-25T20:07:16.602Z,18.98
2022-09-25T20:09:44.709Z,19.05
2022-09-25T20:12:12.520Z,19.05
2022-09-25T20:14:40.700Z,18.98
2022-09-25T20:17:10.011Z,19.04
2022-09-25T20:19:38.396Z,19.06
2022-09-25T20:22:06.224Z,19.04
2022-09-25T20:24:33.839Z,19.10
2022-09-25T20:27:01.822Z,19.15
2022-09-25T20:29:29.818Z,19.12
2022-09-25T20:31:57.415Z,19.12
2022-09-25T20:34:25.200Z,19.15
2022-09-25T20:36:52.821Z,19.09
2022-09-25T20:39:21.684Z,19.08
2022-09-25T20:41:50.171Z,19.14
2022-09-25T20:44:19.777Z,19.18
2022-09-25T20:46:48.881Z,19.08
2022-09-25T20:49:20.050Z,19.01
2022-09-25T20:51:47.649Z,19.03
2022-09-25T20:54:15.901Z,18.95
2022-09-25T20:56:44.858Z,18.90
2022-09-25T20:59:12.716Z,18.96
2022-09-25T21:01:41.892Z,18.99
2022-09-25T21:04:10.741Z,19.12
2022-09-25T21:06:41.418Z,19.08
2022-09-25T21:09:24.041Z,19.03
2022-09-25T21:11:55.478Z,19.03
2022-09-25T21:14:28.026Z,18.93
2022-09-25T21:16:56.440Z,18.88
2022-09-25T21:19:24.562Z,18.95
2022-09-25T21:21:52.235Z,19.00
2022-09-25T21:24:21.929Z,18.93
2022-09-25T21:26:50.727Z,18.83
2022-09-25T21:29:19.412Z,18.83
2022-09-25T21:31:50.410Z,18.85
2022-09-25T21:34:19.989Z,18.79
2022-09-25T21:36:48.358Z,18.90
2022-09-25T21:39:16.483Z,18.96
2022-09-25T21:41:45.031Z,18.86
2022-09-25T21:44:16.198Z,18.76
2022-09-25T21:46:44.190Z,18.79
2022-09-25T21:49:18.828Z,18.82
2022-09-25T21:51:48.303Z,18.85
2022-09-25T21:54:17.137Z,18.85
2022-09-25T21:56:45.683Z,18.79
2022-09-25T21:59:13.486Z,18.88
2022-09-25T22:01:42.548Z,19.05
2022-09-25T22:04:14.222Z,19.21
2022-09-25T22:06:46.214Z,19.37
2022-09-25T22:09:24.255Z,19.50
2022-09-25T22:11:52.328Z,19.61
2022-09-25T22:14:21.855Z,19.70
2022-09-25T22:16:51.518Z,19.75
2022-09-25T22:19:24.789Z,19.76
2022-09-25T22:21:55.423Z,19.80
2022-09-25T22:24:23.196Z,19.82
2022-09-25T22:26:52.632Z,19.83
2022-09-25T22:29:21.380Z,19.84
2022-09-25T22:31:49.309Z,19.83
2022-09-25T22:34:22.575Z,19.83
2022-09-25T22:36:56.248Z,19.82
2022-09-25T22:39:26.604Z,19.80
2022-09-25T22:41:55.746Z,19.79
2022-09-25T22:44:23.826Z,19.79
2022-09-25T22:46:51.838Z,19.78
2022-09-25T22:49:19.767Z,19.77
2022-09-25T22:51:47.217Z,19.77
2022-09-25T22:54:15.425Z,19.78
2022-09-25T22:56:44.046Z,19.79
2022-09-25T22:59:18.512Z,19.79
2022-09-25T23:01:53.673Z,19.79
2022-09-25T23:04:24.404Z,19.78
2022-09-25T23:06:53.135Z,19.80
2022-09-25T23:09:25.913Z,19.83
2022-09-25T23:11:56.307Z,19.86
2022-09-25T23:14:28.460Z,19.87
2022-09-25T23:16:57.289Z,19.87
2022-09-25T23:19:25.429Z,19.85
2022-09-25T23:21:54.343Z,19.83
2022-09-25T23:24:22.921Z,19.82
2022-09-25T23:26:51.387Z,19.75
2022-09-25T23:29:20.958Z,19.74
2022-09-25T23:31:50.217Z,19.75
2022-09-25T23:34:18.932Z,19.78
2022-09-25T23:36:46.825Z,19.79
2022-09-25T23:39:20.156Z,19.80
2022-09-25T23:41:48.633Z,19.85
2022-09-25T23:44:16.705Z,19.87
2022-09-25T23:46:44.530Z,19.88
2022-09-25T23:49:13.557Z,19.91
2022-09-25T23:51:41.729Z,19.94
2022-09-25T23:54:10.769Z,19.98
2022-09-25T23:56:40.780Z,20.01
2022-09-25T23:59:11.910Z,20.02
